createdAt,value
2023-03-07T00:00:46.850Z,2.20
2023-03-07T00:03:15.689Z,1.70
2023-03-07T00:05:43.548Z,2.60
2023-03-07T00:08:13.005Z,2.50
2023-03-07T00:10:55.765Z,2.00
2023-03-07T00:13:30.024Z,1.90
2023-03-07T00:16:12.317Z,3.00
2023-03-07T00:18:40.138Z,2.50
2023-03-07T00:21:09.319Z,2.60
2023-03-07T00:23:46.190Z,1.70
2023-03-07T00:26:16.070Z,2.90
2023-03-07T00:29:13.249Z,1.70
2023-03-07T00:31:30.900Z,2.10
2023-03-07T00:33:57.701Z,2.40
2023-03-07T00:39:19.778Z,2.00
2023-03-07T00:41:46.876Z,2.10
2023-03-07T00:44:21.201Z,1.60
2023-03-07T00:46:55.420Z,2.30
2023-03-07T00:49:23.031Z,2.40
2023-03-07T00:51:53.516Z,1.80
2023-03-07T00:54:23.191Z,2.30
2023-03-07T00:57:00.635Z,1.60
2023-03-07T00:59:56.198Z,2.00
2023-03-07T01:05:36.439Z,2.60
2023-03-07T01:08:17.090Z,1.90
2023-03-07T01:10:59.661Z,2.20
2023-03-07T01:13:36.489Z,1.70
2023-03-07T01:16:26.569Z,2.00
2023-03-07T01:19:38.050Z,2.30
2023-03-07T01:22:18.831Z,2.20
2023-03-07T01:24:45.588Z,2.00
2023-03-07T01:27:12.485Z,1.80
2023-03-07T01:29:48.673Z,2.70
2023-03-07T01:32:18.272Z,2.10
2023-03-07T01:35:20.684Z,2.40
2023-03-07T01:37:50.307Z,2.00
2023-03-07T01:40:21.076Z,2.60
2023-03-07T01:42:53.185Z,1.90
2023-03-07T01:45:35.432Z,1.70
2023-03-07T01:48:07.934Z,1.80
2023-03-07T01:51:17.383Z,1.90
2023-03-07T01:53:47.856Z,2.40
2023-03-07T01:59:27.416Z,2.60
2023-03-07T02:01:54.276Z,1.80
2023-03-07T02:05:14.532Z,2.60
2023-03-07T02:07:58.087Z,1.90
2023-03-07T02:10:34.314Z,1.90
2023-03-07T02:13:01.150Z,2.20
2023-03-07T02:15:27.996Z,1.70
2023-03-07T02:17:58.603Z,1.60
2023-03-07T02:20:56.550Z,2.40
2023-03-07T02:24:03.861Z,1.60
2023-03-07T02:26:37.720Z,1.60
2023-03-07T02:29:13.531Z,1.70
2023-03-07T02:31:43.679Z,2.20
2023-03-07T02:34:37.068Z,0.90
2023-03-07T02:37:16.243Z,0.80
2023-03-07T02:39:48.580Z,1.30
2023-03-07T02:42:25.608Z,1.00
2023-03-07T02:45:04.289Z,1.20
2023-03-07T02:47:33.572Z,1.20
2023-03-07T02:50:00.491Z,0.80
2023-03-07T02:52:47.750Z,1.50
2023-03-07T02:55:14.660Z,1.70
2023-03-07T02:57:43.168Z,0.40
2023-03-07T03:00:12.570Z,1.70
2023-03-07T03:02:42.999Z,1.30
2023-03-07T03:05:09.777Z,2.30
2023-03-07T03:07:39.907Z,0.70
2023-03-07T03:10:10.368Z,0.40
2023-03-07T03:12:43.201Z,0.40
2023-03-07T03:15:13.481Z,0.60
2023-03-07T03:17:40.462Z,0.40
2023-03-07T03:20:12.755Z,0.80
2023-03-07T03:22:43.218Z,1.00
2023-03-07T03:25:12.165Z,0.80
2023-03-07T03:27:50.204Z,0.60
2023-03-07T03:30:17.231Z,0.70
2023-03-07T03:32:46.274Z,1.00
2023-03-07T03:35:24.493Z,0.60
2023-03-07T03:37:51.294Z,1.30
2023-03-07T03:40:18.163Z,0.60
2023-03-07T03:42:45.785Z,0.90
2023-03-07T03:45:16.455Z,1.40
2023-03-07T03:47:49.987Z,1.10
2023-03-07T03:50:18.877Z,0.60
2023-03-07T03:52:45.709Z,1.10
2023-03-07T03:55:12.667Z,1.80
2023-03-07T03:57:45.449Z,1.40
2023-03-07T04:00:14.952Z,0.90
2023-03-07T04:02:41.822Z,1.00
2023-03-07T04:05:08.970Z,0.40
2023-03-07T04:07:40.490Z,0.90
2023-03-07T04:10:17.981Z,1.00
2023-03-07T04:12:49.399Z,1.10
2023-03-07T04:15:16.627Z,1.00
2023-03-07T04:17:43.545Z,1.00
2023-03-07T04:20:17.370Z,0.70
2023-03-07T04:22:44.621Z,1.20
2023-03-07T04:25:16.752Z,0.60
2023-03-07T04:27:56.050Z,1.20
2023-03-07T04:30:27.272Z,1.60
2023-03-07T04:35:37.297Z,2.10
2023-03-07T04:38:04.126Z,1.00
2023-03-07T04:40:31.948Z,1.30
2023-03-07T04:42:59.104Z,1.00
2023-03-07T04:45:39.545Z,1.20
2023-03-07T04:48:14.738Z,1.00
2023-03-07T04:50:45.721Z,1.50
2023-03-07T04:53:27.549Z,1.30
2023-03-07T04:56:18.065Z,1.40
2023-03-07T04:58:47.935Z,1.50
2023-03-07T05:01:16.956Z,1.60
2023-03-07T05:03:54.581Z,1.30
2023-03-07T05:06:21.477Z,1.30
2023-03-07T05:08:57.350Z,0.70
2023-03-07T05:11:24.181Z,1.70
2023-03-07T05:14:11.074Z,1.50
2023-03-07T05:19:37.811Z,1.50
2023-03-07T05:22:14.424Z,1.10
2023-03-07T05:24:50.744Z,1.60
2023-03-07T05:27:21.012Z,2.00
2023-03-07T05:29:53.457Z,1.40
2023-03-07T05:32:25.197Z,1.60
2023-03-07T05:34:55.785Z,1.50
2023-03-07T05:37:25.527Z,2.20
2023-03-07T05:40:11.751Z,1.50
2023-03-07T05:42:39.429Z,2.40
2023-03-07T05:45:07.506Z,1.20
2023-03-07T05:47:34.606Z,1.50
2023-03-07T05:50:11.312Z,1.40
2023-03-07T05:52:50.274Z,1.60
2023-03-07T05:55:20.441Z,1.50
2023-03-07T05:58:02.026Z,1.80
2023-03-07T06:00:32.060Z,1.50
2023-03-07T06:03:11.753Z,1.70
2023-03-07T06:05:39.533Z,1.70
2023-03-07T06:08:32.524Z,1.60
2023-03-07T06:11:11.619Z,2.20
2023-03-07T06:13:45.206Z,1.90
2023-03-07T06:16:12.490Z,2.40
2023-03-07T06:18:39.448Z,1.70
2023-03-07T06:21:08.005Z,1.50
2023-03-07T06:23:42.283Z,1.80
2023-03-07T06:26:10.434Z,1.50
2023-03-07T06:28:39.372Z,1.70
2023-03-07T06:31:39.036Z,1.80
2023-03-07T06:34:12.456Z,1.80
2023-03-07T06:36:46.009Z,2.70
2023-03-07T06:39:13.632Z,2.30
2023-03-07T06:41:40.623Z,2.60
2023-03-07T06:44:13.568Z,1.40
2023-03-07T06:46:40.357Z,1.90
2023-03-07T06:49:07.729Z,1.90
2023-03-07T06:51:40.718Z,2.00
2023-03-07T06:54:11.573Z,1.70
2023-03-07T06:56:49.217Z,2.20
2023-03-07T06:59:16.981Z,2.30
2023-03-07T07:01:44.092Z,2.50
2023-03-07T07:04:26.288Z,2.60
2023-03-07T07:07:00.413Z,2.30
2023-03-07T07:09:27.316Z,2.50
2023-03-07T07:11:54.162Z,2.20
2023-03-07T07:14:24.211Z,2.70
2023-03-07T07:16:51.208Z,3.20
2023-03-07T07:19:27.581Z,1.80
2023-03-07T07:21:54.586Z,2.40
2023-03-07T07:24:27.082Z,2.30
2023-03-07T07:26:56.943Z,2.80
2023-03-07T07:29:24.052Z,2.60
2023-03-07T07:31:50.854Z,2.90
2023-03-07T07:34:17.811Z,2.40
2023-03-07T07:36:44.877Z,2.60
2023-03-07T07:39:13.011Z,3.20
2023-03-07T07:41:40.929Z,2.60
2023-03-07T07:44:11.723Z,2.60
2023-03-07T07:46:38.534Z,2.90
2023-03-07T07:49:05.363Z,2.50
2023-03-07T07:51:33.928Z,2.40
2023-03-07T07:54:00.679Z,2.30
2023-03-07T07:56:27.688Z,2.50
2023-03-07T07:58:54.505Z,2.50
2023-03-07T08:01:24.017Z,2.70
2023-03-07T08:03:50.934Z,3.70
2023-03-07T08:06:24.612Z,2.60
2023-03-07T08:08:52.084Z,2.20
2023-03-07T08:11:22.942Z,3.80
2023-03-07T08:13:50.009Z,4.00
2023-03-07T08:16:23.291Z,2.60
2023-03-07T08:18:53.335Z,2.80
2023-03-07T08:21:21.346Z,3.70
2023-03-07T08:23:51.094Z,2.80
2023-03-07T08:28:46.205Z,3.40
2023-03-07T08:31:19.117Z,3.20
2023-03-07T08:33:47.907Z,3.50
2023-03-07T08:41:09.993Z,3.80
2023-03-07T08:43:39.842Z,3.60
2023-03-07T08:46:09.861Z,4.40
2023-03-07T08:51:10.579Z,4.50
2023-03-07T08:53:43.247Z,3.70
2023-03-07T08:56:11.942Z,4.70
2023-03-07T08:58:39.011Z,4.20
2023-03-07T09:03:34.496Z,5.10
2023-03-07T09:06:02.163Z,5.50
2023-03-07T09:08:29.055Z,5.10
2023-03-07T09:10:55.879Z,4.90
2023-03-07T09:13:22.628Z,5.30
2023-03-07T09:15:49.379Z,5.10
2023-03-07T09:18:16.082Z,5.00
2023-03-07T09:20:42.865Z,5.50
2023-03-07T09:23:12.630Z,4.80
2023-03-07T09:25:40.368Z,5.60
2023-03-07T09:28:09.907Z,5.10
2023-03-07T09:30:37.476Z,7.40
2023-03-07T09:33:04.248Z,5.30
2023-03-07T09:35:32.103Z,7.20
2023-03-07T09:38:01.356Z,5.70
2023-03-07T09:40:28.179Z,6.00
2023-03-07T09:43:13.260Z,7.90
2023-03-07T09:45:50.163Z,7.80
2023-03-07T09:48:54.702Z,6.00
2023-03-07T09:51:25.168Z,6.20
2023-03-07T09:53:57.709Z,5.10
2023-03-07T09:56:29.947Z,5.70
2023-03-07T09:59:33.547Z,5.50
2023-03-07T10:02:21.334Z,5.90
2023-03-07T10:04:55.590Z,5.90
2023-03-07T10:07:26.048Z,5.30
2023-03-07T10:09:57.546Z,5.50
2023-03-07T10:12:39.018Z,5.40
2023-03-07T10:15:47.689Z,5.90
2023-03-07T10:24:18.516Z,6.50
2023-03-07T11:58:38.069Z,7.20
2023-03-07T16:25:34.930Z,5.40
2023-03-07T16:28:02.059Z,3.50
2023-03-07T16:30:30.660Z,5.30
2023-03-07T16:32:57.695Z,5.50
2023-03-07T16:35:27.308Z,5.50
2023-03-07T16:37:55.074Z,5.00
2023-03-07T16:40:34.409Z,6.40
2023-03-07T16:43:01.855Z,5.80
2023-03-07T16:45:35.797Z,4.60
2023-03-07T16:48:02.674Z,4.90
2023-03-07T16:50:33.525Z,4.80
2023-03-07T16:53:00.425Z,5.00
2023-03-07T16:55:27.320Z,5.00
2023-03-07T16:57:58.640Z,4.70
2023-03-07T17:00:38.293Z,4.70
2023-03-07T17:03:07.456Z,5.30
2023-03-07T17:05:34.208Z,4.70
2023-03-07T17:08:01.010Z,4.60
2023-03-07T17:10:31.122Z,4.60
2023-03-07T17:13:00.909Z,4.90
2023-03-07T17:15:31.204Z,4.60
2023-03-07T17:18:08.074Z,4.70
2023-03-07T17:20:34.955Z,4.80
2023-03-07T17:23:01.679Z,6.20
2023-03-07T17:25:28.621Z,4.80
2023-03-07T17:28:02.800Z,5.30
2023-03-07T17:30:31.317Z,5.50
2023-03-07T17:32:58.424Z,6.20
2023-03-07T17:35:25.412Z,4.50
2023-03-07T17:37:55.500Z,4.80
2023-03-07T17:40:22.960Z,5.70
2023-03-07T17:42:51.502Z,4.50
2023-03-07T17:45:18.667Z,4.70
2023-03-07T17:47:49.344Z,4.70
2023-03-07T17:50:16.206Z,5.30
2023-03-07T17:52:43.625Z,4.40
2023-03-07T17:55:11.094Z,4.40
2023-03-07T17:57:42.587Z,4.60
2023-03-07T18:00:19.704Z,5.30
2023-03-07T18:02:47.500Z,4.60
2023-03-07T18:05:14.423Z,4.40
2023-03-07T18:07:41.630Z,4.40
2023-03-07T18:10:09.723Z,4.80
2023-03-07T18:12:39.599Z,4.40
2023-03-07T18:15:11.737Z,4.50
2023-03-07T18:17:47.355Z,4.40
2023-03-07T18:20:17.079Z,4.40
2023-03-07T18:22:43.857Z,4.40
2023-03-07T18:25:13.849Z,4.30
2023-03-07T18:27:40.649Z,4.30
2023-03-07T18:30:07.811Z,4.30
2023-03-07T18:32:34.630Z,4.20
2023-03-07T18:35:01.589Z,4.20
2023-03-07T18:37:28.760Z,4.30
2023-03-07T18:39:55.628Z,4.20
2023-03-07T18:42:25.495Z,4.20
2023-03-07T18:44:52.330Z,4.40
2023-03-07T18:47:19.067Z,5.00
2023-03-07T18:49:49.041Z,4.10
2023-03-07T18:52:15.914Z,4.40
2023-03-07T18:54:52.161Z,4.20
2023-03-07T18:57:23.979Z,4.40
2023-03-07T18:59:51.101Z,4.40
2023-03-07T19:02:17.892Z,4.40
2023-03-07T19:04:44.625Z,4.40
2023-03-07T19:07:11.460Z,4.40
2023-03-07T19:09:38.212Z,4.40
2023-03-07T19:12:05.033Z,4.40
2023-03-07T19:14:33.124Z,4.40
2023-03-07T19:16:59.931Z,4.40
2023-03-07T19:19:26.639Z,4.40
2023-03-07T19:21:53.383Z,4.40
2023-03-07T19:24:20.069Z,4.40
2023-03-07T19:26:48.873Z,4.30
2023-03-07T19:29:15.616Z,4.40
2023-03-07T19:31:44.238Z,4.40
2023-03-07T19:34:11.148Z,4.40
2023-03-07T19:36:41.405Z,4.40
2023-03-07T19:39:20.133Z,4.30
2023-03-07T19:41:50.464Z,4.40
2023-03-07T19:44:17.985Z,4.40
2023-03-07T19:46:47.619Z,4.40
2023-03-07T19:49:15.864Z,4.60
2023-03-07T19:51:42.841Z,4.30
2023-03-07T19:54:13.178Z,4.30
2023-03-07T19:56:39.895Z,4.30
2023-03-07T19:59:08.278Z,4.30
2023-03-07T20:01:35.152Z,4.30
2023-03-07T20:04:04.739Z,4.30
2023-03-07T20:06:32.390Z,4.30
2023-03-07T20:09:00.528Z,4.30
2023-03-07T20:11:29.968Z,4.40
2023-03-07T20:14:00.852Z,4.40
2023-03-07T20:16:29.359Z,4.30
2023-03-07T20:19:04.879Z,4.40
2023-03-07T20:21:33.268Z,4.40
2023-03-07T20:24:00.507Z,4.40
2023-03-07T20:26:33.055Z,4.40
2023-03-07T20:29:04.304Z,4.50
2023-03-07T20:31:32.032Z,4.50
2023-03-07T20:34:00.537Z,5.00
2023-03-07T20:36:29.930Z,4.50
2023-03-07T20:38:58.768Z,4.50
2023-03-07T20:41:30.809Z,4.50
2023-03-07T20:44:04.183Z,4.40
2023-03-07T20:46:32.167Z,4.60
2023-03-07T20:49:00.979Z,4.60
2023-03-07T20:51:30.531Z,4.60
2023-03-07T20:54:10.128Z,4.60
2023-03-07T20:56:38.753Z,4.60
2023-03-07T20:59:08.772Z,4.60
2023-03-07T21:01:36.074Z,4.60
2023-03-07T21:04:08.290Z,4.60
2023-03-07T21:06:36.935Z,4.60
2023-03-07T21:09:08.410Z,4.60
2023-03-07T21:11:38.858Z,4.60
2023-03-07T21:14:06.088Z,5.70
2023-03-07T21:16:32.925Z,4.60
2023-03-07T21:19:01.863Z,4.60
2023-03-07T21:21:30.178Z,4.60
2023-03-07T21:23:57.432Z,4.60
2023-03-07T21:26:28.342Z,4.60
2023-03-07T21:28:57.425Z,4.70
2023-03-07T21:31:26.721Z,4.70
2023-03-07T21:34:06.479Z,4.70
2023-03-07T21:36:34.014Z,4.70
2023-03-07T21:39:04.109Z,4.70
2023-03-07T21:41:31.043Z,4.70
2023-03-07T21:43:58.325Z,4.70
2023-03-07T21:46:29.343Z,4.70
2023-03-07T21:48:59.222Z,4.70
2023-03-07T21:51:25.928Z,4.70
2023-03-07T21:53:52.665Z,4.70
2023-03-07T21:56:23.638Z,4.70
2023-03-07T21:58:51.837Z,4.50
2023-03-07T22:01:22.684Z,4.60
2023-03-07T22:03:53.555Z,4.70
2023-03-07T22:06:20.881Z,4.60
2023-03-07T22:08:47.796Z,4.70
2023-03-07T22:11:16.967Z,4.60
2023-03-07T22:13:43.739Z,4.70
2023-03-07T22:16:13.478Z,4.70
2023-03-07T22:18:40.401Z,4.70
2023-03-07T22:21:15.131Z,4.70
2023-03-07T22:23:42.141Z,4.70
2023-03-07T22:26:10.912Z,4.80
2023-03-07T22:28:37.918Z,4.80
2023-03-07T22:31:07.148Z,4.70
2023-03-07T22:33:34.122Z,4.70
2023-03-07T22:36:04.095Z,4.70
2023-03-07T22:38:31.151Z,4.70
2023-03-07T22:41:10.840Z,4.70
2023-03-07T22:43:37.846Z,4.60
2023-03-07T22:46:05.636Z,4.60
2023-03-07T22:48:34.292Z,4.60
2023-03-07T22:51:01.437Z,4.60
2023-03-07T22:53:32.380Z,4.60
2023-03-07T22:56:00.516Z,5.10
2023-03-07T22:58:29.131Z,4.50
2023-03-07T23:00:56.476Z,4.60
2023-03-07T23:03:23.780Z,4.70
2023-03-07T23:05:51.743Z,4.70
2023-03-07T23:08:18.486Z,5.30
2023-03-07T23:10:45.570Z,4.60
2023-03-07T23:13:12.279Z,4.70
2023-03-07T23:15:41.825Z,4.70
2023-03-07T23:18:08.979Z,4.60
2023-03-07T23:20:41.056Z,4.60
2023-03-07T23:23:08.020Z,4.60
2023-03-07T23:25:41.044Z,5.60
2023-03-07T23:28:09.669Z,4.50
2023-03-07T23:30:38.467Z,4.60
2023-03-07T23:33:06.360Z,4.50
2023-03-07T23:35:34.032Z,5.10
2023-03-07T23:38:01.200Z,4.40
2023-03-07T23:40:28.090Z,4.50
2023-03-07T23:42:57.194Z,4.40
2023-03-07T23:45:26.299Z,4.60
2023-03-07T23:48:00.349Z,5.50
2023-03-07T23:50:27.725Z,4.40
2023-03-07T23:52:54.536Z,4.30
2023-03-07T23:55:22.751Z,4.90
2023-03-07T23:57:49.612Z,4.30
